Baker, OR

10:28 AM PDT on September 02, 2014 (GMT -0700)
RAWS FLAGSTAFF HILL OR US | Change Station
CLOSE
Current Station
Personal Weather Station
Location: Baker City, OR
Elevation: 3944 ft
Nearby Weather Stations

Elev 3944 ft 44.81 °N, 117.73 °W | Updated 33 minutes ago

Clear
Clear
66 °F
Feels Like 66 °F
N
11
Wind Variable Wind from ESE
Gusts 16.0 mph

Today
High -- | Low -- °F
--% Chance of Precip.
Yesterday
High -- | Low -- °F
Precip. -- in
6:14 AM 7:26 PM
First Quarter, 53% visible
Pressure 29.91 in
Visibility 10.0 miles
Clouds Clear
Dew Point 43 °F
Humidity 44%
Rainfall 0.00 in
Snow Depth 1 in
UV 5 out of 12
Pollen 5.80 out of 12
Air Quality Not available.
Flu Activity Not available.
METAR KBKE 021653Z AUTO 00000KT 10SM CLR 17/07 A2994 RMK AO2 SLP127 T01670067 TSNO $

More Conditions Fewer Conditions

Pressure 29.91 in
Visibility 10.0 miles
Clouds Clear
Dew Point 43 °F
Humidity 44%
Rainfall 0.00 in
Snow Depth 1 in
UV 5 out of 12
Pollen 5.80 out of 12
Air Quality Not available.
Flu Activity Not available.
METAR KBKE 021653Z AUTO 00000KT 10SM CLR 17/07 A2994 RMK AO2 SLP127 T01670067 TSNO $

More Conditions Fewer Conditions

10-Day Weather Forecast

Almanac

Astronomy

Sep. 02, 2014 Rise Set
Actual Time 6:14 AM PDT 7:26 PM PDT
Civil Twilight 5:44 AM PDT 7:56 PM PDT
Nautical Twilight 5:08 AM PDT 8:32 PM PDT
Astronomical Twilight 4:30 AM PDT 9:10 PM PDT
Moon 2:21 PM PDT No Moon Set
Length of Visible Light 14h 11m
Length of Day
13h 11m
Tomorrow will be 3m 0s shorter.
First Quarter, 53% of the Moon is Illuminated
Today
First Quarter
Sep 8
Full
Sep 15
Last Quarter
Sep 24
New
Oct 1
First Quarter

Today's Extremes

State Highs State Lows

Community

WunderPhotos

Upload Photos

1,749,721 photos uploaded!

WunderBlogs® & News

By Dr. Jeff Masters
Director of Meteorology, Weather Underground
By Kari Strenfel
Meteorologist, Weather Underground
By Christopher C. Burt
Weather Historian, Weather Underground
September 2, 2014
September 2, 2014
September 2, 2014

Nearby

Snow Depth

Station Depth Elevation
Bourne 1 in 5800 ft
Schneider Meadows 0 in 5400 ft
Blue Mountain Spring 0 in 5900 ft
Bowman Springs 0 in 4580 ft
Lake Creek R.S. 0 in 5200 ft

Earthquake Activity

City Distance Mag. Time & Date
No recent earthquake activity has been reported nearby.
Minimum magnitude displayed is 2.5.

Coastal Water Temperatures

Place Temperature
No Stations Reporting

Nearby Weather Stations